createdAt,value
2018-06-25T00:01:04.801Z,16.23
2018-06-25T00:03:33.615Z,16.03
2018-06-25T00:06:02.760Z,16.03
2018-06-25T00:08:31.795Z,15.98
2018-06-25T00:11:00.534Z,16.04
2018-06-25T00:13:29.252Z,16.01
2018-06-25T00:15:58.029Z,16.00
2018-06-25T00:18:26.787Z,15.96
2018-06-25T00:20:55.606Z,15.92
2018-06-25T00:23:24.399Z,15.91
2018-06-25T00:25:53.390Z,15.92
2018-06-25T00:28:22.117Z,15.93
2018-06-25T00:30:50.874Z,15.89
2018-06-25T00:33:19.614Z,15.89
2018-06-25T00:35:48.356Z,15.90
2018-06-25T00:38:18.003Z,15.85
2018-06-25T00:40:47.358Z,15.81
2018-06-25T00:43:16.073Z,15.80
2018-06-25T00:45:44.823Z,15.75
2018-06-25T00:48:13.625Z,15.74
2018-06-25T00:50:42.344Z,15.77
2018-06-25T00:53:11.110Z,15.71
2018-06-25T00:55:39.841Z,15.70
2018-06-25T00:58:08.685Z,15.64
2018-06-25T01:00:37.789Z,15.60
2018-06-25T01:03:06.611Z,15.56
2018-06-25T01:05:35.463Z,15.56
2018-06-25T01:08:04.198Z,15.57
2018-06-25T01:10:32.910Z,15.57
2018-06-25T01:13:01.599Z,15.49
2018-06-25T01:15:30.305Z,15.49
2018-06-25T01:17:59.093Z,15.54
2018-06-25T01:20:27.847Z,15.59
2018-06-25T01:22:56.622Z,15.58
2018-06-25T01:25:25.334Z,15.59
2018-06-25T01:27:54.157Z,15.57
2018-06-25T01:30:22.929Z,15.58
2018-06-25T01:32:51.645Z,15.60
2018-06-25T01:35:20.365Z,15.63
2018-06-25T01:37:49.117Z,15.67
2018-06-25T01:40:17.844Z,15.55
2018-06-25T01:42:46.534Z,15.58
2018-06-25T01:45:15.328Z,15.55
2018-06-25T01:47:44.046Z,15.55
2018-06-25T01:50:12.759Z,15.52
2018-06-25T01:52:41.578Z,15.44
2018-06-25T01:55:10.276Z,15.43
2018-06-25T01:57:38.991Z,15.39
2018-06-25T02:00:07.818Z,15.45
2018-06-25T02:02:36.550Z,15.41
2018-06-25T02:05:06.183Z,15.35
2018-06-25T02:07:35.243Z,15.35
2018-06-25T02:10:04.100Z,15.25
2018-06-25T02:12:32.967Z,15.19
2018-06-25T02:15:01.696Z,15.20
2018-06-25T02:17:30.414Z,15.21
2018-06-25T02:19:59.117Z,15.18
2018-06-25T02:22:27.871Z,15.14
2018-06-25T02:24:56.574Z,15.13
2018-06-25T02:27:25.291Z,15.14
2018-06-25T02:29:54.007Z,15.09
2018-06-25T02:32:23.165Z,15.04
2018-06-25T02:34:52.508Z,14.99
2018-06-25T02:37:21.267Z,15.03
2018-06-25T02:39:50.489Z,15.06
2018-06-25T02:42:19.279Z,15.09
2018-06-25T02:44:47.964Z,15.06
2018-06-25T02:47:16.834Z,15.05
2018-06-25T02:49:45.666Z,15.01
2018-06-25T02:52:14.451Z,14.99
2018-06-25T02:54:43.171Z,14.96
2018-06-25T02:57:11.896Z,14.90
2018-06-25T02:59:40.634Z,14.91
2018-06-25T03:02:11.509Z,14.93
2018-06-25T03:04:40.251Z,14.97
2018-06-25T03:07:09.391Z,14.99
2018-06-25T03:09:38.107Z,14.96
2018-06-25T03:12:06.897Z,14.91
2018-06-25T03:14:35.621Z,14.86
2018-06-25T03:17:04.357Z,14.90
2018-06-25T03:19:33.107Z,14.95
2018-06-25T03:22:02.053Z,14.99
2018-06-25T03:24:30.841Z,15.07
2018-06-25T03:26:59.582Z,15.15
2018-06-25T03:29:35.526Z,15.18
2018-06-25T03:32:04.714Z,15.24
2018-06-25T03:34:33.399Z,15.22
2018-06-25T03:37:02.215Z,15.28
2018-06-25T03:39:30.967Z,15.36
2018-06-25T03:41:59.773Z,15.35
2018-06-25T03:44:28.513Z,15.35
2018-06-25T03:46:57.238Z,15.33
2018-06-25T03:49:25.995Z,15.30
2018-06-25T03:51:54.910Z,15.34
2018-06-25T03:54:23.630Z,15.30
2018-06-25T03:56:52.385Z,15.31
2018-06-25T03:59:21.135Z,15.35
2018-06-25T04:01:50.053Z,15.37
2018-06-25T04:04:19.028Z,15.24
2018-06-25T04:06:47.792Z,15.30
2018-06-25T04:09:16.516Z,15.34
2018-06-25T04:11:45.264Z,15.38
2018-06-25T04:14:14.003Z,15.40
2018-06-25T04:16:42.726Z,15.50
2018-06-25T04:19:11.511Z,15.59
2018-06-25T04:21:40.273Z,15.67
2018-06-25T04:24:09.087Z,15.74
2018-06-25T04:26:37.852Z,15.85
2018-06-25T04:29:06.962Z,15.90
2018-06-25T04:31:35.671Z,16.08
2018-06-25T04:34:04.840Z,16.27
2018-06-25T04:36:33.679Z,16.20
2018-06-25T04:39:02.426Z,16.18
2018-06-25T04:41:31.274Z,16.33
2018-06-25T04:44:00.031Z,16.31
2018-06-25T04:46:28.813Z,16.27
2018-06-25T04:48:57.556Z,16.38
2018-06-25T04:51:26.299Z,16.51
2018-06-25T04:53:55.053Z,16.70
2018-06-25T04:56:23.829Z,16.88
2018-06-25T04:58:52.647Z,17.05
2018-06-25T05:01:21.725Z,17.05
2018-06-25T05:03:50.591Z,17.08
2018-06-25T05:06:19.365Z,16.93
2018-06-25T05:08:48.265Z,17.01
2018-06-25T05:11:17.078Z,17.00
2018-06-25T05:13:45.931Z,16.77
2018-06-25T05:16:14.775Z,16.83
2018-06-25T05:18:43.638Z,16.87
2018-06-25T05:21:12.435Z,16.90
2018-06-25T05:23:41.258Z,17.00
2018-06-25T05:26:10.158Z,17.14
2018-06-25T05:28:38.992Z,17.04
2018-06-25T05:31:07.894Z,17.07
2018-06-25T05:33:36.659Z,17.04
2018-06-25T05:36:05.907Z,16.97
2018-06-25T05:38:34.807Z,17.02
2018-06-25T05:41:03.720Z,17.28
2018-06-25T05:43:32.528Z,17.64
2018-06-25T05:46:01.350Z,17.65
2018-06-25T05:48:30.096Z,17.76
2018-06-25T05:50:58.867Z,17.80
2018-06-25T05:53:27.576Z,17.83
2018-06-25T05:55:56.336Z,17.66
2018-06-25T05:58:25.711Z,17.56
2018-06-25T06:00:54.617Z,17.42
2018-06-25T06:03:23.351Z,17.21
2018-06-25T06:05:52.174Z,17.20
2018-06-25T06:08:20.981Z,17.20
2018-06-25T06:10:49.809Z,17.36
2018-06-25T06:13:18.591Z,17.37
2018-06-25T06:15:47.477Z,17.35
2018-06-25T06:18:16.229Z,17.53
2018-06-25T06:20:44.968Z,17.75
2018-06-25T06:23:13.823Z,17.88
2018-06-25T06:25:42.954Z,17.86
2018-06-25T06:28:11.734Z,17.84
2018-06-25T06:30:40.594Z,17.90
2018-06-25T06:33:09.409Z,18.28
2018-06-25T06:35:38.224Z,18.51
2018-06-25T06:38:07.019Z,18.39
2018-06-25T06:40:35.748Z,18.24
2018-06-25T06:43:04.627Z,18.05
2018-06-25T06:45:33.845Z,18.13
2018-06-25T06:48:02.790Z,18.25
2018-06-25T06:50:31.605Z,18.17
2018-06-25T06:53:00.325Z,18.35
2018-06-25T06:55:29.063Z,18.45
2018-06-25T06:57:57.847Z,18.34
2018-06-25T07:00:26.727Z,18.59
2018-06-25T07:02:55.462Z,18.67
2018-06-25T07:05:24.215Z,18.92
2018-06-25T07:07:53.066Z,19.18
2018-06-25T07:10:21.855Z,18.97
2018-06-25T07:12:50.734Z,18.90
2018-06-25T07:15:19.494Z,18.77
2018-06-25T07:17:48.386Z,18.72
2018-06-25T07:20:17.143Z,18.88
2018-06-25T07:22:45.855Z,19.08
2018-06-25T07:25:14.670Z,18.95
2018-06-25T07:27:43.646Z,18.65
2018-06-25T07:30:12.542Z,18.53
2018-06-25T07:32:41.409Z,18.77
2018-06-25T07:35:10.187Z,18.73
2018-06-25T07:37:39.062Z,18.44
2018-06-25T07:40:07.854Z,18.48
2018-06-25T07:42:36.992Z,18.73
2018-06-25T07:45:05.777Z,18.86
2018-06-25T07:47:34.546Z,18.92
2018-06-25T07:50:03.493Z,18.91
2018-06-25T07:52:32.231Z,19.06
2018-06-25T07:55:00.966Z,19.00
2018-06-25T07:57:29.796Z,18.94
2018-06-25T07:59:58.545Z,18.97
2018-06-25T08:02:27.337Z,19.11
2018-06-25T08:04:56.132Z,19.24
2018-06-25T08:07:25.043Z,19.41
2018-06-25T08:09:53.869Z,19.49
2018-06-25T08:12:22.807Z,19.23
2018-06-25T08:14:51.656Z,19.05
2018-06-25T08:17:20.519Z,19.14
2018-06-25T08:19:49.468Z,19.15
2018-06-25T08:22:18.230Z,19.24
2018-06-25T08:24:47.133Z,19.22
2018-06-25T08:27:15.903Z,19.32
2018-06-25T08:29:45.248Z,19.37
2018-06-25T08:32:14.590Z,19.38
2018-06-25T08:34:43.460Z,19.45
2018-06-25T08:37:12.887Z,19.37
2018-06-25T08:39:41.785Z,19.55
2018-06-25T08:42:10.622Z,19.58
2018-06-25T08:44:39.510Z,19.77
2018-06-25T08:47:08.361Z,19.86
2018-06-25T08:49:37.228Z,19.79
2018-06-25T08:52:06.794Z,19.72
2018-06-25T08:54:35.615Z,19.92
2018-06-25T08:57:04.484Z,20.01
2018-06-25T08:59:33.397Z,20.07
2018-06-25T09:02:02.358Z,20.44
2018-06-25T09:04:31.121Z,20.42
2018-06-25T09:06:59.957Z,20.36
2018-06-25T09:09:33.922Z,20.29
2018-06-25T09:12:02.901Z,20.73
2018-06-25T09:14:31.716Z,20.96
2018-06-25T09:17:00.538Z,20.88
2018-06-25T09:19:29.376Z,20.76
2018-06-25T09:21:58.358Z,20.67
2018-06-25T09:24:27.327Z,20.62
2018-06-25T09:26:56.217Z,20.49
2018-06-25T09:29:25.257Z,20.57
2018-06-25T09:31:54.063Z,20.49
2018-06-25T09:34:57.431Z,20.62
2018-06-25T09:37:26.563Z,20.70
2018-06-25T09:39:55.348Z,20.69
2018-06-25T09:42:24.159Z,20.85
2018-06-25T09:44:53.024Z,20.78
2018-06-25T09:47:21.868Z,20.93
2018-06-25T09:49:50.920Z,21.03
2018-06-25T09:52:19.794Z,21.08
2018-06-25T09:54:49.083Z,21.10
2018-06-25T09:57:18.011Z,21.07
2018-06-25T09:59:46.733Z,21.26
2018-06-25T10:02:15.524Z,21.48
2018-06-25T10:04:44.310Z,21.42
2018-06-25T10:07:13.100Z,21.71
2018-06-25T10:09:41.939Z,21.67
2018-06-25T10:12:10.667Z,21.44
2018-06-25T10:14:39.494Z,21.25
2018-06-25T10:17:08.447Z,21.08
2018-06-25T10:19:37.197Z,21.14
2018-06-25T10:22:06.186Z,21.10
2018-06-25T10:24:34.963Z,21.23
2018-06-25T10:27:10.276Z,21.14
2018-06-25T10:29:39.100Z,21.06
2018-06-25T10:32:07.923Z,20.90
2018-06-25T10:34:37.152Z,20.93
2018-06-25T10:37:06.059Z,21.00
2018-06-25T10:39:34.802Z,21.06
2018-06-25T10:42:03.998Z,21.09
2018-06-25T10:44:33.086Z,21.17
2018-06-25T10:47:01.922Z,21.40
2018-06-25T10:49:30.754Z,21.50
2018-06-25T10:51:59.555Z,21.75
2018-06-25T10:54:28.379Z,21.44
2018-06-25T10:56:57.130Z,21.21
2018-06-25T10:59:25.991Z,21.55
2018-06-25T11:01:54.872Z,21.62
2018-06-25T11:04:23.718Z,21.70
2018-06-25T11:06:52.528Z,21.58
2018-06-25T11:09:21.376Z,21.58
2018-06-25T11:11:50.282Z,21.66
2018-06-25T11:14:19.157Z,21.79
2018-06-25T11:16:47.919Z,21.83
2018-06-25T11:19:16.722Z,22.12
2018-06-25T11:21:45.478Z,22.28
2018-06-25T11:24:14.240Z,22.21
2018-06-25T11:26:43.099Z,22.21
2018-06-25T11:29:12.855Z,22.26
2018-06-25T11:31:41.631Z,22.18
2018-06-25T11:34:10.397Z,22.27
2018-06-25T11:36:39.201Z,22.12
2018-06-25T11:39:09.854Z,22.14
2018-06-25T11:41:38.700Z,22.12
2018-06-25T11:44:07.627Z,22.28
2018-06-25T11:46:36.491Z,22.47
2018-06-25T11:49:05.714Z,22.47
2018-06-25T11:51:34.476Z,22.52
2018-06-25T11:54:03.302Z,22.43
2018-06-25T11:56:32.120Z,22.74
2018-06-25T11:59:00.883Z,23.32
2018-06-25T12:01:29.652Z,23.78
2018-06-25T12:03:58.983Z,23.57
2018-06-25T12:06:27.815Z,23.60
2018-06-25T12:08:56.613Z,23.73
2018-06-25T12:11:25.459Z,23.76
2018-06-25T12:13:54.218Z,23.63
2018-06-25T12:16:23.859Z,23.85
2018-06-25T12:18:53.083Z,23.74
2018-06-25T12:21:21.789Z,23.80
2018-06-25T12:23:50.594Z,23.54
2018-06-25T12:26:20.335Z,23.25
2018-06-25T12:28:49.669Z,23.02
2018-06-25T12:31:18.477Z,22.83
2018-06-25T12:33:47.275Z,22.79
2018-06-25T12:36:17.290Z,22.75
2018-06-25T12:38:50.945Z,22.63
2018-06-25T12:41:21.204Z,22.23
2018-06-25T12:43:50.423Z,22.17
2018-06-25T12:46:19.252Z,22.16
2018-06-25T12:48:48.486Z,22.41
2018-06-25T12:51:17.269Z,22.63
2018-06-25T12:53:46.106Z,22.23
2018-06-25T12:56:15.103Z,21.96
2018-06-25T12:58:43.840Z,22.06
2018-06-25T13:01:12.696Z,21.62
2018-06-25T13:03:41.496Z,21.63
2018-06-25T13:06:10.319Z,21.65
2018-06-25T13:08:39.073Z,21.80
2018-06-25T13:11:07.890Z,22.12
2018-06-25T13:13:36.731Z,22.02
2018-06-25T13:16:05.526Z,22.09
2018-06-25T13:18:35.022Z,22.08
2018-06-25T13:21:03.943Z,22.19
2018-06-25T13:23:32.850Z,22.26
2018-06-25T13:26:01.747Z,22.43
2018-06-25T13:28:30.555Z,22.63
2018-06-25T13:30:59.489Z,22.71
2018-06-25T13:33:28.493Z,22.52
2018-06-25T13:35:57.297Z,22.53
2018-06-25T13:38:26.096Z,22.28
2018-06-25T13:40:55.036Z,22.41
2018-06-25T13:43:24.325Z,22.50
2018-06-25T13:45:53.196Z,22.67
2018-06-25T13:48:22.023Z,22.77
2018-06-25T13:50:51.017Z,22.82
2018-06-25T13:53:19.803Z,23.14
2018-06-25T13:55:48.498Z,23.12
2018-06-25T13:58:17.320Z,22.85
2018-06-25T14:00:46.063Z,22.86
2018-06-25T14:03:14.862Z,23.11
2018-06-25T14:05:44.655Z,23.06
2018-06-25T14:08:13.553Z,22.95
2018-06-25T14:10:42.457Z,22.75
2018-06-25T14:13:11.285Z,22.69
2018-06-25T14:15:40.079Z,22.68
2018-06-25T14:18:08.966Z,22.79
2018-06-25T14:20:37.764Z,22.76
2018-06-25T14:23:06.997Z,22.78
2018-06-25T14:25:41.005Z,22.63
2018-06-25T14:28:15.136Z,22.59
2018-06-25T14:30:49.368Z,22.48
2018-06-25T14:33:22.288Z,22.50
2018-06-25T14:35:51.433Z,22.51
2018-06-25T14:38:20.312Z,22.29
2018-06-25T14:40:49.112Z,22.36
2018-06-25T14:43:17.993Z,22.53
2018-06-25T14:45:46.815Z,22.64
2018-06-25T14:48:15.602Z,22.73
2018-06-25T14:50:46.434Z,22.79
2018-06-25T14:53:15.181Z,22.85
2018-06-25T14:55:43.981Z,22.87
2018-06-25T14:58:13.776Z,23.00
2018-06-25T15:00:42.602Z,23.16
2018-06-25T15:03:11.359Z,23.10
2018-06-25T15:05:40.108Z,22.92
2018-06-25T15:08:08.898Z,22.92
2018-06-25T15:10:37.649Z,22.91
2018-06-25T15:13:06.964Z,22.90
2018-06-25T15:15:35.864Z,22.94
2018-06-25T15:18:05.087Z,22.94
2018-06-25T15:20:34.093Z,22.84
2018-06-25T15:23:02.955Z,22.90
2018-06-25T15:25:31.791Z,22.96
2018-06-25T15:28:00.670Z,23.07
2018-06-25T15:30:29.417Z,22.92
2018-06-25T15:32:58.435Z,22.61
2018-06-25T15:35:27.256Z,22.43
2018-06-25T15:37:56.158Z,22.61
2018-06-25T15:40:25.038Z,22.56
2018-06-25T15:42:54.867Z,22.58
2018-06-25T15:45:23.588Z,22.67
2018-06-25T15:47:52.365Z,22.77
2018-06-25T15:50:21.114Z,22.49
2018-06-25T15:52:49.874Z,22.28
2018-06-25T15:55:18.635Z,22.30
2018-06-25T15:57:47.481Z,22.50
2018-06-25T16:00:17.530Z,22.54
2018-06-25T16:02:46.266Z,22.51
2018-06-25T16:05:15.032Z,22.49
2018-06-25T16:07:43.878Z,22.49
2018-06-25T16:10:12.651Z,22.62
2018-06-25T16:12:41.505Z,22.52
2018-06-25T16:15:10.317Z,22.66
2018-06-25T16:17:39.227Z,22.64
2018-06-25T16:20:07.962Z,22.87
2018-06-25T16:22:36.893Z,22.98
2018-06-25T16:25:06.330Z,23.01
2018-06-25T16:27:35.162Z,22.76
2018-06-25T16:30:05.800Z,22.61
2018-06-25T16:32:34.549Z,22.31
2018-06-25T16:35:03.427Z,22.22
2018-06-25T16:37:32.191Z,22.07
2018-06-25T16:40:00.976Z,21.99
2018-06-25T16:42:30.954Z,22.04
2018-06-25T16:44:59.735Z,21.97
2018-06-25T16:49:56.515Z,21.92
2018-06-25T16:52:25.370Z,21.98
2018-06-25T16:54:54.224Z,22.05
2018-06-25T16:57:22.975Z,22.12
2018-06-25T16:59:51.750Z,22.09
2018-06-25T17:02:20.554Z,21.96
2018-06-25T17:04:49.482Z,21.81
2018-06-25T17:07:18.338Z,21.82
2018-06-25T17:09:47.156Z,21.84
2018-06-25T17:12:16.309Z,21.75
2018-06-25T17:14:45.552Z,21.59
2018-06-25T17:17:14.312Z,21.55
2018-06-25T17:19:43.087Z,21.49
2018-06-25T17:22:11.836Z,21.54
2018-06-25T17:24:40.597Z,21.40
2018-06-25T17:27:09.307Z,21.38
2018-06-25T17:29:38.024Z,21.27
2018-06-25T17:32:06.781Z,21.19
2018-06-25T17:34:35.534Z,21.14
2018-06-25T17:37:04.886Z,21.11
2018-06-25T17:39:35.642Z,21.06
2018-06-25T17:42:06.254Z,20.98
2018-06-25T17:44:34.954Z,20.93
2018-06-25T17:47:04.293Z,20.88
2018-06-25T17:49:34.924Z,20.85
2018-06-25T17:52:03.690Z,20.81
2018-06-25T17:54:32.485Z,20.86
2018-06-25T17:57:01.579Z,20.84
2018-06-25T17:59:30.391Z,20.59
2018-06-25T18:02:02.269Z,20.41
2018-06-25T18:04:33.124Z,20.32
2018-06-25T18:07:03.939Z,20.26
2018-06-25T18:09:33.546Z,20.15
2018-06-25T18:12:02.929Z,20.15
2018-06-25T18:14:32.153Z,20.10
2018-06-25T18:17:00.935Z,20.05
2018-06-25T18:19:29.782Z,19.96
2018-06-25T18:21:58.611Z,19.93
2018-06-25T18:24:27.440Z,19.88
2018-06-25T18:26:56.436Z,19.82
2018-06-25T18:29:25.208Z,19.73
2018-06-25T18:31:54.018Z,19.60
2018-06-25T18:34:22.735Z,19.56
2018-06-25T18:36:51.522Z,19.51
2018-06-25T18:39:20.284Z,19.44
2018-06-25T18:41:49.108Z,19.36
2018-06-25T18:44:17.906Z,19.36
2018-06-25T18:46:46.629Z,19.27
2018-06-25T18:49:15.412Z,19.20
2018-06-25T18:51:44.335Z,19.17
2018-06-25T18:54:13.183Z,19.13
2018-06-25T18:56:41.956Z,19.15
2018-06-25T18:59:10.688Z,19.09
2018-06-25T19:01:39.399Z,19.03
2018-06-25T19:04:08.580Z,19.02
2018-06-25T19:06:37.635Z,18.98
2018-06-25T19:09:09.588Z,18.98
2018-06-25T19:11:38.747Z,18.94
2018-06-25T19:14:07.962Z,18.96
2018-06-25T19:16:36.764Z,18.93
2018-06-25T19:19:05.693Z,18.93
2018-06-25T19:21:34.399Z,18.91
2018-06-25T19:24:03.179Z,18.87
2018-06-25T19:26:31.921Z,18.84
2018-06-25T19:29:00.639Z,18.82
2018-06-25T19:31:29.402Z,18.75
2018-06-25T19:33:58.158Z,18.73
2018-06-25T19:36:27.290Z,18.74
2018-06-25T19:38:56.054Z,18.75
2018-06-25T19:41:24.878Z,18.78
2018-06-25T19:43:54.654Z,18.82
2018-06-25T19:46:23.407Z,18.85
2018-06-25T19:48:52.453Z,18.81
2018-06-25T19:51:21.228Z,18.80
2018-06-25T19:53:50.374Z,18.79
2018-06-25T19:56:19.556Z,18.80
2018-06-25T19:58:48.340Z,18.81
2018-06-25T20:01:17.145Z,18.74
2018-06-25T20:03:45.921Z,18.66
2018-06-25T20:06:15.025Z,18.65
2018-06-25T20:08:44.068Z,18.59
2018-06-25T20:11:12.895Z,18.58
2018-06-25T20:13:42.092Z,18.59
2018-06-25T20:16:10.934Z,18.55
2018-06-25T20:18:39.751Z,18.51
2018-06-25T20:21:08.457Z,18.54
2018-06-25T20:23:37.531Z,18.54
2018-06-25T20:26:06.628Z,18.56
2018-06-25T20:28:37.179Z,18.60
2018-06-25T20:31:06.006Z,18.63
2018-06-25T20:33:34.722Z,18.66
2018-06-25T20:36:03.911Z,18.70
2018-06-25T20:38:32.636Z,18.68
2018-06-25T20:41:01.427Z,18.73
2018-06-25T20:43:30.171Z,18.69
2018-06-25T20:45:59.126Z,18.62
2018-06-25T20:48:27.982Z,18.61
2018-06-25T20:50:56.751Z,18.56
2018-06-25T20:53:25.558Z,18.54
2018-06-25T20:55:55.051Z,18.59
2018-06-25T20:58:23.806Z,18.59
2018-06-25T21:00:52.594Z,18.60
2018-06-25T21:03:21.429Z,18.62
2018-06-25T21:05:50.412Z,18.68
2018-06-25T21:08:19.106Z,18.71
2018-06-25T21:10:47.827Z,18.72
2018-06-25T21:13:16.590Z,18.75
2018-06-25T21:15:45.755Z,18.76
2018-06-25T21:18:14.512Z,18.74
2018-06-25T21:20:43.255Z,18.75
2018-06-25T21:23:12.387Z,18.73
2018-06-25T21:25:41.093Z,18.75
2018-06-25T21:28:10.106Z,18.74
2018-06-25T21:30:40.233Z,18.71
2018-06-25T21:33:10.125Z,18.65
2018-06-25T21:35:39.364Z,18.63
2018-06-25T21:38:08.536Z,18.61
2018-06-25T21:40:37.753Z,18.54
2018-06-25T21:43:06.546Z,18.54
2018-06-25T21:45:35.304Z,18.52
2018-06-25T21:48:04.023Z,18.50
2018-06-25T21:50:32.750Z,18.43
2018-06-25T21:53:01.509Z,18.44
2018-06-25T21:55:30.269Z,18.41
2018-06-25T21:57:59.023Z,18.37
2018-06-25T22:00:37.583Z,18.40
2018-06-25T22:03:06.280Z,18.34
2018-06-25T22:05:35.011Z,18.34
2018-06-25T22:08:03.783Z,18.34
2018-06-25T22:10:32.561Z,18.34
2018-06-25T22:13:01.260Z,18.32
2018-06-25T22:15:30.088Z,18.34
2018-06-25T22:17:59.168Z,18.41
2018-06-25T22:20:28.149Z,18.42
2018-06-25T22:22:56.951Z,18.46
2018-06-25T22:25:26.156Z,18.48
2018-06-25T22:27:55.011Z,18.48
2018-06-25T22:30:23.994Z,18.44
2018-06-25T22:32:52.787Z,18.40
2018-06-25T22:35:21.507Z,18.38
2018-06-25T22:37:51.111Z,18.37
2018-06-25T22:40:19.854Z,18.40
2018-06-25T22:42:49.582Z,18.37
2018-06-25T22:45:18.354Z,18.38
2018-06-25T22:47:47.151Z,18.36
2018-06-25T22:50:15.950Z,18.27
2018-06-25T22:52:44.631Z,18.24
2018-06-25T22:55:13.362Z,18.20
2018-06-25T22:57:42.188Z,18.22
2018-06-25T23:00:10.958Z,18.22
2018-06-25T23:02:39.706Z,18.16
2018-06-25T23:05:08.842Z,18.13
2018-06-25T23:07:37.591Z,18.10
2018-06-25T23:10:06.332Z,18.08
2018-06-25T23:12:35.023Z,18.04
2018-06-25T23:15:03.821Z,18.02
2018-06-25T23:17:32.522Z,18.02
2018-06-25T23:20:01.294Z,18.08
2018-06-25T23:22:30.006Z,17.97
2018-06-25T23:24:58.762Z,17.94
2018-06-25T23:27:27.481Z,17.88
2018-06-25T23:29:56.168Z,17.86
2018-06-25T23:32:24.950Z,17.84
2018-06-25T23:34:53.676Z,17.89
2018-06-25T23:37:22.414Z,17.94
2018-06-25T23:39:57.480Z,17.84
2018-06-25T23:42:26.187Z,17.83
2018-06-25T23:44:55.189Z,17.83
2018-06-25T23:47:23.939Z,17.81
2018-06-25T23:49:52.659Z,17.78
2018-06-25T23:52:21.408Z,17.79
2018-06-25T23:54:50.122Z,17.72
2018-06-25T23:57:18.986Z,17.69
2018-06-25T23:59:47.711Z,17.70
